Time;durP1;ratioP1;P1;durP2;ratioP2;P2;SDS_P1;SDS_P2;PMS_P1;PMS_P2;Temp;Humidity;BMP_temperature;BMP_pressure;BME280_temperature;BME280_humidity;BME280_pressure;Samples;Min_cycle;Max_cycle;Signal;HPM_P1;HPM_P2
2022/08/16 00:01:59;;;;;;;15.60;14.05;;;;;;;;;;5137340;27;20400;-64
2022/08/16 00:04:25;;;;;;;14.93;12.30;;;;;;;;;;5132009;27;20122;-63
2022/08/16 00:06:51;;;;;;;17.83;15.23;;;;;;;;;;5142875;27;20085;-63
2022/08/16 00:09:17;;;;;;;15.82;14.20;;;;;;;;;;5150009;27;20547;-64
2022/08/16 00:11:45;;;;;;;16.77;15.07;;;;;;;;;;5149991;27;20035;-63
2022/08/16 00:14:12;;;;;;;16.08;14.48;;;;;;;;;;5139659;27;20397;-63
2022/08/16 00:16:39;;;;;;;17.50;14.82;;;;;;;;;;5145026;27;20464;-63
2022/08/16 00:19:05;;;;;;;16.48;14.65;;;;;;;;;;5141664;27;20042;-63
2022/08/16 00:21:32;;;;;;;15.85;14.00;;;;;;;;;;5143124;27;20141;-63
2022/08/16 00:23:58;;;;;;;17.58;15.77;;;;;;;;;;5139480;27;20473;-63
2022/08/16 00:26:25;;;;;;;19.55;13.48;;;;;;;;;;5129676;27;20714;-63
2022/08/16 00:28:51;;;;;;;15.88;14.10;;;;;;;;;;5143065;27;20077;-63
2022/08/16 00:31:18;;;;;;;14.95;13.18;;;;;;;;;;5136402;27;20074;-64
2022/08/16 00:33:44;;;;;;;21.75;14.25;;;;;;;;;;5144875;27;20095;-63
2022/08/16 00:36:10;;;;;;;15.48;13.65;;;;;;;;;;5124605;27;20035;-64
2022/08/16 00:38:36;;;;;;;16.10;14.40;;;;;;;;;;5151148;27;20100;-63
2022/08/16 00:41:02;;;;;;;18.27;13.70;;;;;;;;;;5143987;27;20042;-63
2022/08/16 00:43:33;;;;;;;16.15;14.48;;;;;;;;;;5131623;27;20390;-64
2022/08/16 00:46:05;;;;;;;15.80;12.95;;;;;;;;;;5150391;27;20038;-64
2022/08/16 00:48:31;;;;;;;14.63;13.02;;;;;;;;;;5146591;27;20042;-64
2022/08/16 00:50:58;;;;;;;16.17;14.50;;;;;;;;;;5149180;27;20031;-64
2022/08/16 00:53:24;;;;;;;17.02;13.82;;;;;;;;;;5140715;27;20511;-63
2022/08/16 00:55:52;;;;;;;15.82;13.77;;;;;;;;;;5134477;27;20228;-64
2022/08/16 00:58:19;;;;;;;15.50;12.93;;;;;;;;;;5147148;27;20099;-64
2022/08/16 01:00:46;;;;;;;18.80;12.65;;;;;;;;;;5151878;27;20476;-64
2022/08/16 01:03:14;;;;;;;18.48;15.02;;;;;;;;;;5151775;27;20043;-64
2022/08/16 01:05:41;;;;;;;17.92;14.73;;;;;;;;;;5135836;27;20031;-64
2022/08/16 01:08:08;;;;;;;17.73;14.70;;;;;;;;;;5117946;28;20046;-64
2022/08/16 01:10:34;;;;;;;19.02;15.40;;;;;;;;;;5145968;27;20087;-64
2022/08/16 01:13:19;;;;;;;17.00;15.18;;;;;;;;;;5151549;27;20031;-64
2022/08/16 01:15:48;;;;;;;18.45;16.45;;;;;;;;;;5131776;27;20091;-64
2022/08/16 01:18:17;;;;;;;16.20;14.43;;;;;;;;;;5124502;27;20399;-64
2022/08/16 01:20:46;;;;;;;22.45;15.93;;;;;;;;;;5138725;27;20292;-64
2022/08/16 01:23:29;;;;;;;22.55;15.65;;;;;;;;;;5132155;27;20492;-64
2022/08/16 01:25:56;;;;;;;18.63;16.67;;;;;;;;;;5134514;27;20043;-64
2022/08/16 01:28:23;;;;;;;17.33;15.52;;;;;;;;;;5132035;27;20051;-64
2022/08/16 01:30:52;;;;;;;17.25;14.60;;;;;;;;;;5146038;27;20034;-63
2022/08/16 01:33:19;;;;;;;20.08;15.60;;;;;;;;;;5147804;27;20121;-64
2022/08/16 01:35:50;;;;;;;18.60;16.67;;;;;;;;;;5148755;27;20414;-64
2022/08/16 01:38:22;;;;;;;17.35;14.70;;;;;;;;;;5138317;27;20507;-63
2022/08/16 01:40:51;;;;;;;19.70;15.75;;;;;;;;;;5127710;27;20039;-63
2022/08/16 01:43:17;;;;;;;17.48;15.48;;;;;;;;;;5144190;27;20039;-64
2022/08/16 01:45:43;;;;;;;18.10;16.13;;;;;;;;;;5133899;27;20047;-64
2022/08/16 01:48:10;;;;;;;17.35;15.32;;;;;;;;;;5145077;27;20053;-64
2022/08/16 01:50:36;;;;;;;21.70;16.30;;;;;;;;;;5152913;27;20094;-64
2022/08/16 01:53:03;;;;;;;19.25;17.08;;;;;;;;;;5137731;27;20031;-64
2022/08/16 01:55:30;;;;;;;18.58;16.70;;;;;;;;;;5144044;27;20046;-64
2022/08/16 01:57:56;;;;;;;20.50;16.52;;;;;;;;;;5141895;27;20077;-64
2022/08/16 02:00:22;;;;;;;17.58;15.68;;;;;;;;;;5135159;27;20046;-63
2022/08/16 02:02:48;;;;;;;17.15;15.40;;;;;;;;;;5143705;27;20084;-64
2022/08/16 02:05:14;;;;;;;21.05;17.00;;;;;;;;;;5150730;27;20042;-64
2022/08/16 02:07:42;;;;;;;19.27;15.65;;;;;;;;;;5150290;27;20184;-64
2022/08/16 02:10:09;;;;;;;18.10;15.80;;;;;;;;;;5135394;27;20443;-64
2022/08/16 02:12:35;;;;;;;22.30;16.58;;;;;;;;;;5136726;27;20035;-64
2022/08/16 02:15:03;;;;;;;20.13;18.15;;;;;;;;;;5137764;27;20033;-64
2022/08/16 02:17:30;;;;;;;20.35;15.20;;;;;;;;;;5151393;27;20074;-64
2022/08/16 02:19:56;;;;;;;18.70;16.38;;;;;;;;;;5152738;27;20042;-64
2022/08/16 02:22:24;;;;;;;20.58;16.10;;;;;;;;;;5139216;27;20043;-64
2022/08/16 02:24:51;;;;;;;18.25;16.40;;;;;;;;;;5147735;27;20082;-64
2022/08/16 02:27:18;;;;;;;19.85;17.10;;;;;;;;;;5115926;27;20035;-64
2022/08/16 02:29:44;;;;;;;18.58;16.52;;;;;;;;;;5149130;27;20062;-64
2022/08/16 02:32:12;;;;;;;19.33;15.15;;;;;;;;;;5139349;27;20039;-64
2022/08/16 02:34:38;;;;;;;18.75;15.73;;;;;;;;;;5141139;27;20039;-64
2022/08/16 02:37:04;;;;;;;17.92;15.38;;;;;;;;;;5149387;27;20548;-64
2022/08/16 02:39:30;;;;;;;18.80;14.43;;;;;;;;;;5142343;27;20496;-64
2022/08/16 02:41:56;;;;;;;20.33;15.75;;;;;;;;;;5121751;27;20042;-64
2022/08/16 02:44:23;;;;;;;19.65;15.90;;;;;;;;;;5138375;27;20188;-64
2022/08/16 02:46:49;;;;;;;18.88;15.02;;;;;;;;;;5143866;27;20529;-64
2022/08/16 02:49:16;;;;;;;15.88;14.07;;;;;;;;;;5143772;27;20626;-64
2022/08/16 02:51:42;;;;;;;20.45;16.45;;;;;;;;;;5149844;27;20126;-64
2022/08/16 02:54:09;;;;;;;19.05;15.20;;;;;;;;;;5142143;27;20035;-64
2022/08/16 02:56:36;;;;;;;19.95;14.27;;;;;;;;;;5152180;27;20187;-64
2022/08/16 02:59:02;;;;;;;17.83;14.98;;;;;;;;;;5137963;27;20109;-64
2022/08/16 03:01:30;;;;;;;19.23;15.93;;;;;;;;;;5149262;27;20123;-64
2022/08/16 03:03:58;;;;;;;17.38;14.45;;;;;;;;;;5139930;27;20057;-64
2022/08/16 03:06:25;;;;;;;21.30;14.65;;;;;;;;;;5138761;27;20026;-65
2022/08/16 03:08:51;;;;;;;16.80;14.70;;;;;;;;;;5152893;27;20034;-64
2022/08/16 03:11:17;;;;;;;20.48;16.75;;;;;;;;;;5150105;27;20027;-64
2022/08/16 03:13:54;;;;;;;19.52;15.65;;;;;;;;;;5119724;27;20031;-64
2022/08/16 03:16:21;;;;;;;18.40;15.43;;;;;;;;;;5142366;27;20295;-64
2022/08/16 03:18:47;;;;;;;22.13;17.58;;;;;;;;;;5144716;27;20038;-64
2022/08/16 03:21:14;;;;;;;18.00;15.43;;;;;;;;;;5132282;27;20067;-64
2022/08/16 03:23:40;;;;;;;22.23;15.40;;;;;;;;;;5147023;27;20068;-64
2022/08/16 03:26:06;;;;;;;19.67;15.40;;;;;;;;;;5150809;27;20087;-63
2022/08/16 03:28:33;;;;;;;17.75;14.77;;;;;;;;;;5143863;27;20473;-64
2022/08/16 03:30:59;;;;;;;20.45;16.48;;;;;;;;;;5149335;27;20680;-64
2022/08/16 03:33:25;;;;;;;20.70;14.32;;;;;;;;;;5137608;27;20118;-64
2022/08/16 03:35:52;;;;;;;19.15;15.05;;;;;;;;;;5122716;27;20073;-64
2022/08/16 03:38:18;;;;;;;19.95;14.77;;;;;;;;;;5138927;27;20035;-64
2022/08/16 03:40:45;;;;;;;19.95;16.10;;;;;;;;;;5149787;27;20049;-64
2022/08/16 03:43:12;;;;;;;22.20;16.85;;;;;;;;;;5142914;27;20043;-64
2022/08/16 03:45:39;;;;;;;22.83;15.63;;;;;;;;;;5142178;27;20110;-64
2022/08/16 03:48:06;;;;;;;18.73;15.18;;;;;;;;;;5144464;27;20035;-64
2022/08/16 03:50:32;;;;;;;23.98;16.73;;;;;;;;;;5119154;27;20046;-63
2022/08/16 03:52:58;;;;;;;18.05;14.82;;;;;;;;;;5151654;27;20499;-64
2022/08/16 03:55:25;;;;;;;22.58;17.45;;;;;;;;;;5152129;27;20042;-63
2022/08/16 03:57:52;;;;;;;20.92;17.48;;;;;;;;;;5145838;27;20035;-64
2022/08/16 04:00:20;;;;;;;24.63;15.90;;;;;;;;;;5131891;27;20149;-64
2022/08/16 04:02:47;;;;;;;18.90;15.45;;;;;;;;;;5135212;27;20072;-64
2022/08/16 04:05:14;;;;;;;19.05;16.63;;;;;;;;;;5148736;27;20050;-64
2022/08/16 04:07:41;;;;;;;20.63;18.20;;;;;;;;;;5145469;27;20065;-64
2022/08/16 04:10:08;;;;;;;22.40;18.30;;;;;;;;;;5120167;27;20491;-64
2022/08/16 04:12:35;;;;;;;19.48;16.05;;;;;;;;;;5123434;27;20088;-64
2022/08/16 04:15:01;;;;;;;18.63;15.80;;;;;;;;;;5138399;27;20325;-64
2022/08/16 04:17:28;;;;;;;19.20;15.98;;;;;;;;;;5143065;27;20372;-64
2022/08/16 04:19:55;;;;;;;22.25;17.05;;;;;;;;;;5137426;27;20047;-64
2022/08/16 04:22:21;;;;;;;21.95;17.52;;;;;;;;;;5141179;27;20046;-64
2022/08/16 04:24:48;;;;;;;22.02;17.52;;;;;;;;;;5123108;27;20046;-64
2022/08/16 04:27:14;;;;;;;30.15;16.58;;;;;;;;;;5137495;27;20085;-64
2022/08/16 04:29:40;;;;;;;19.67;15.73;;;;;;;;;;5149554;27;20034;-64
2022/08/16 04:32:07;;;;;;;21.48;16.38;;;;;;;;;;5137642;27;20041;-64
2022/08/16 04:34:34;;;;;;;21.50;16.48;;;;;;;;;;5140319;27;20492;-64
2022/08/16 04:37:01;;;;;;;21.42;16.90;;;;;;;;;;5137817;27;20043;-64
2022/08/16 04:39:28;;;;;;;22.52;17.10;;;;;;;;;;5151569;27;20074;-64
2022/08/16 04:41:55;;;;;;;18.25;16.33;;;;;;;;;;5150347;27;20503;-64
2022/08/16 04:44:21;;;;;;;24.42;17.00;;;;;;;;;;5148157;27;20055;-64
2022/08/16 04:46:48;;;;;;;21.42;17.70;;;;;;;;;;5134552;27;20042;-64
2022/08/16 04:49:14;;;;;;;21.30;17.20;;;;;;;;;;5145625;27;20031;-64
2022/08/16 04:51:40;;;;;;;22.73;16.58;;;;;;;;;;5133429;27;20095;-64
2022/08/16 04:54:07;;;;;;;19.15;16.63;;;;;;;;;;5135031;27;20039;-64
2022/08/16 04:56:33;;;;;;;21.23;18.92;;;;;;;;;;5132615;27;20122;-64
2022/08/16 04:59:00;;;;;;;22.13;16.30;;;;;;;;;;5131924;27;20039;-64
2022/08/16 05:01:26;;;;;;;21.92;17.25;;;;;;;;;;5146897;27;20031;-64
2022/08/16 05:03:52;;;;;;;19.88;16.55;;;;;;;;;;5140782;27;20118;-64
2022/08/16 05:06:18;;;;;;;20.42;17.15;;;;;;;;;;5135746;27;20035;-64
2022/08/16 05:08:45;;;;;;;21.75;16.00;;;;;;;;;;5139190;27;20036;-65
2022/08/16 05:11:12;;;;;;;19.02;15.98;;;;;;;;;;5143052;27;20039;-64
2022/08/16 05:13:40;;;;;;;22.63;17.42;;;;;;;;;;5139173;27;20038;-63
2022/08/16 05:16:08;;;;;;;22.17;17.40;;;;;;;;;;5143291;27;20062;-64
2022/08/16 05:18:35;;;;;;;20.42;18.23;;;;;;;;;;5148166;27;20038;-64
2022/08/16 05:21:02;;;;;;;21.80;17.13;;;;;;;;;;5140196;27;20461;-64
2022/08/16 05:23:28;;;;;;;22.33;17.70;;;;;;;;;;5141912;27;20112;-64
2022/08/16 05:25:54;;;;;;;20.67;16.42;;;;;;;;;;5145422;27;20111;-64
2022/08/16 05:28:20;;;;;;;21.45;17.02;;;;;;;;;;5148200;27;20026;-64
2022/08/16 05:30:47;;;;;;;19.55;16.90;;;;;;;;;;5143372;27;20031;-64
2022/08/16 05:33:13;;;;;;;22.63;16.75;;;;;;;;;;5141514;27;20377;-64
2022/08/16 05:35:39;;;;;;;20.05;16.25;;;;;;;;;;5140909;27;20036;-64
2022/08/16 05:38:05;;;;;;;25.00;18.90;;;;;;;;;;5147623;27;20074;-64
2022/08/16 05:40:31;;;;;;;21.08;17.60;;;;;;;;;;5142028;27;20078;-64
2022/08/16 05:42:57;;;;;;;18.55;16.25;;;;;;;;;;5146160;27;20034;-63
2022/08/16 05:45:23;;;;;;;21.65;17.73;;;;;;;;;;5142711;27;20050;-63
2022/08/16 05:47:50;;;;;;;23.95;17.85;;;;;;;;;;5146220;27;20053;-63
2022/08/16 05:50:16;;;;;;;24.15;19.15;;;;;;;;;;5147423;27;20508;-63
2022/08/16 05:52:42;;;;;;;21.50;17.25;;;;;;;;;;5140356;27;20241;-63
2022/08/16 05:55:08;;;;;;;24.67;19.42;;;;;;;;;;5139756;27;20118;-63
2022/08/16 05:57:35;;;;;;;25.10;20.77;;;;;;;;;;5153935;27;20042;-63
2022/08/16 06:00:01;;;;;;;24.05;17.55;;;;;;;;;;5149123;27;20043;-63
2022/08/16 06:02:30;;;;;;;20.38;16.45;;;;;;;;;;5149681;27;20042;-63
2022/08/16 06:04:57;;;;;;;20.40;16.08;;;;;;;;;;5153666;27;20050;-64
2022/08/16 06:07:23;;;;;;;21.55;17.55;;;;;;;;;;5153014;27;20034;-64
2022/08/16 06:09:49;;;;;;;22.13;17.20;;;;;;;;;;5126017;27;20047;-64
2022/08/16 06:12:17;;;;;;;20.48;17.63;;;;;;;;;;5143376;27;20039;-64
2022/08/16 06:14:43;;;;;;;23.38;17.83;;;;;;;;;;5152600;27;20038;-64
2022/08/16 06:17:09;;;;;;;23.13;17.63;;;;;;;;;;5128297;27;20603;-64
2022/08/16 06:19:35;;;;;;;21.42;17.52;;;;;;;;;;5145694;27;20107;-64
2022/08/16 06:22:02;;;;;;;23.05;18.60;;;;;;;;;;5149122;27;20127;-64
2022/08/16 06:24:28;;;;;;;19.73;15.13;;;;;;;;;;5148102;27;20043;-64
2022/08/16 06:26:55;;;;;;;23.48;18.27;;;;;;;;;;5119511;27;20269;-65
2022/08/16 06:29:21;;;;;;;21.55;16.83;;;;;;;;;;5151237;27;20027;-65
2022/08/16 06:31:47;;;;;;;22.23;19.83;;;;;;;;;;5154814;27;20070;-64
2022/08/16 06:34:14;;;;;;;20.95;17.90;;;;;;;;;;5137019;27;20095;-64
2022/08/16 06:36:41;;;;;;;23.45;17.08;;;;;;;;;;5137937;27;20035;-64
2022/08/16 06:39:07;;;;;;;22.55;17.73;;;;;;;;;;5145319;27;20026;-64
2022/08/16 06:41:33;;;;;;;23.52;18.88;;;;;;;;;;5139286;27;20031;-66
2022/08/16 06:44:00;;;;;;;23.98;17.15;;;;;;;;;;5146454;27;20051;-66
2022/08/16 06:46:28;;;;;;;29.40;20.27;;;;;;;;;;5126168;27;20042;-65
2022/08/16 06:48:54;;;;;;;25.00;19.45;;;;;;;;;;5143935;27;20048;-66
2022/08/16 06:51:21;;;;;;;23.40;20.08;;;;;;;;;;5151499;27;20076;-65
2022/08/16 06:53:47;;;;;;;26.33;20.23;;;;;;;;;;5146088;27;20133;-66
2022/08/16 06:56:13;;;;;;;23.70;19.52;;;;;;;;;;5132877;27;20030;-67
2022/08/16 06:58:39;;;;;;;24.60;19.50;;;;;;;;;;5148839;27;20039;-66
2022/08/16 07:01:05;;;;;;;26.08;19.80;;;;;;;;;;5129212;27;20034;-66
2022/08/16 07:03:32;;;;;;;25.30;20.02;;;;;;;;;;5125188;27;20121;-66
2022/08/16 07:05:58;;;;;;;27.80;20.98;;;;;;;;;;5151454;27;20046;-66
2022/08/16 07:08:25;;;;;;;26.42;22.67;;;;;;;;;;5127344;27;20495;-67
2022/08/16 07:10:52;;;;;;;30.40;21.80;;;;;;;;;;5143610;27;20070;-67
2022/08/16 07:13:19;;;;;;;25.65;18.65;;;;;;;;;;5146922;27;20444;-66
2022/08/16 07:15:46;;;;;;;27.13;22.13;;;;;;;;;;5125111;27;20503;-67
2022/08/16 07:18:14;;;;;;;26.73;22.50;;;;;;;;;;5137244;27;20642;-66
2022/08/16 07:20:40;;;;;;;27.45;21.75;;;;;;;;;;5125095;27;20046;-66
2022/08/16 07:23:08;;;;;;;28.30;21.77;;;;;;;;;;5128227;27;20042;-67
2022/08/16 07:25:34;;;;;;;34.42;22.75;;;;;;;;;;5152925;27;20581;-67
2022/08/16 07:28:01;;;;;;;26.33;21.75;;;;;;;;;;5121127;27;20050;-66
2022/08/16 07:30:28;;;;;;;25.38;19.10;;;;;;;;;;5147839;27;20039;-66
2022/08/16 07:32:54;;;;;;;30.35;21.45;;;;;;;;;;5152870;27;20039;-66
2022/08/16 07:35:21;;;;;;;28.70;19.42;;;;;;;;;;5146852;27;20493;-67
2022/08/16 07:37:47;;;;;;;25.88;18.85;;;;;;;;;;5145514;27;20468;-65
2022/08/16 07:40:14;;;;;;;27.23;18.70;;;;;;;;;;5138190;27;20062;-68
2022/08/16 07:42:40;;;;;;;26.48;18.65;;;;;;;;;;5134855;27;20062;-68
2022/08/16 07:45:07;;;;;;;19.58;16.05;;;;;;;;;;5097164;27;20062;-67
2022/08/16 07:47:33;;;;;;;21.00;18.02;;;;;;;;;;5119522;27;20446;-67
2022/08/16 07:50:01;;;;;;;23.02;16.90;;;;;;;;;;5119525;27;20111;-67
2022/08/16 07:52:27;;;;;;;23.15;19.15;;;;;;;;;;5120475;27;20046;-68
2022/08/16 07:54:54;;;;;;;22.90;17.08;;;;;;;;;;5143435;27;20042;-68
2022/08/16 07:57:20;;;;;;;24.05;18.35;;;;;;;;;;5144844;27;20053;-70
2022/08/16 07:59:46;;;;;;;27.20;17.50;;;;;;;;;;5110771;27;20222;-72
2022/08/16 08:02:13;;;;;;;25.23;17.70;;;;;;;;;;5111767;27;20053;-67
2022/08/16 08:04:40;;;;;;;23.25;18.80;;;;;;;;;;5121257;27;20631;-68
2022/08/16 08:07:06;;;;;;;24.77;20.50;;;;;;;;;;5113529;27;20147;-68
2022/08/16 08:09:33;;;;;;;24.80;19.13;;;;;;;;;;5112621;27;20441;-67
2022/08/16 08:11:59;;;;;;;25.75;20.25;;;;;;;;;;5110632;27;20039;-68
2022/08/16 08:14:25;;;;;;;28.40;20.45;;;;;;;;;;5144916;27;20046;-64
2022/08/16 08:16:52;;;;;;;26.08;19.05;;;;;;;;;;5140752;27;20377;-64
2022/08/16 08:19:19;;;;;;;22.90;19.73;;;;;;;;;;5095549;27;20035;-70
2022/08/16 08:21:46;;;;;;;21.88;19.67;;;;;;;;;;5140244;27;20521;-68
2022/08/16 08:24:13;;;;;;;28.63;20.33;;;;;;;;;;5129949;27;20307;-67
2022/08/16 08:26:41;;;;;;;22.90;16.63;;;;;;;;;;5134789;27;20091;-67
2022/08/16 08:29:07;;;;;;;26.10;17.10;;;;;;;;;;5149765;27;20126;-67
2022/08/16 08:31:35;;;;;;;20.48;16.83;;;;;;;;;;5102791;27;20795;-62
2022/08/16 08:34:03;;;;;;;27.27;17.88;;;;;;;;;;5130984;27;20031;-68
2022/08/16 08:36:30;;;;;;;19.63;14.80;;;;;;;;;;5119305;27;20103;-69
2022/08/16 08:38:57;;;;;;;20.55;15.60;;;;;;;;;;5126343;27;21473;-67
2022/08/16 08:41:24;;;;;;;18.13;16.05;;;;;;;;;;5128183;27;20054;-68
2022/08/16 08:43:51;;;;;;;24.33;17.50;;;;;;;;;;5110587;27;20078;-68
2022/08/16 08:46:18;;;;;;;22.00;17.23;;;;;;;;;;5128408;27;20086;-69
2022/08/16 08:48:45;;;;;;;25.80;17.25;;;;;;;;;;5125031;27;20100;-71
2022/08/16 08:51:11;;;;;;;20.65;17.23;;;;;;;;;;5130987;27;20042;-67
2022/08/16 08:53:38;;;;;;;21.95;18.30;;;;;;;;;;5123720;27;20384;-66
2022/08/16 08:56:06;;;;;;;26.05;16.27;;;;;;;;;;5148705;27;20080;-64
2022/08/16 08:58:33;;;;;;;22.35;14.32;;;;;;;;;;5147685;27;20043;-64
2022/08/16 09:00:59;;;;;;;20.60;15.82;;;;;;;;;;5140944;27;20240;-65
2022/08/16 09:03:25;;;;;;;16.83;14.23;;;;;;;;;;5143852;27;20091;-64
2022/08/16 09:05:51;;;;;;;26.48;14.20;;;;;;;;;;5141471;27;20034;-65
2022/08/16 09:08:17;;;;;;;20.35;14.80;;;;;;;;;;5147782;27;20472;-65
2022/08/16 09:10:44;;;;;;;24.33;15.50;;;;;;;;;;5138339;27;20039;-64
2022/08/16 09:13:10;;;;;;;18.35;14.60;;;;;;;;;;5145940;27;20039;-64
2022/08/16 09:15:36;;;;;;;19.73;16.52;;;;;;;;;;5138158;27;20038;-64
2022/08/16 09:18:03;;;;;;;19.23;15.27;;;;;;;;;;5148863;27;20046;-64
2022/08/16 09:20:30;;;;;;;21.20;14.93;;;;;;;;;;5150273;27;20509;-64
2022/08/16 09:22:57;;;;;;;17.33;14.30;;;;;;;;;;5121077;27;20040;-65
2022/08/16 09:25:24;;;;;;;15.60;14.00;;;;;;;;;;5135085;27;20039;-64
2022/08/16 09:27:50;;;;;;;19.38;15.07;;;;;;;;;;5139249;27;20042;-64
2022/08/16 09:30:16;;;;;;;17.00;14.07;;;;;;;;;;5128087;27;20095;-64
2022/08/16 09:32:43;;;;;;;18.60;14.25;;;;;;;;;;5122632;27;20030;-64
2022/08/16 09:35:09;;;;;;;19.30;14.13;;;;;;;;;;5141003;27;20030;-64
2022/08/16 09:37:36;;;;;;;18.90;14.35;;;;;;;;;;5113654;28;20430;-64
2022/08/16 09:40:02;;;;;;;20.75;16.83;;;;;;;;;;5138269;27;20054;-64
2022/08/16 09:42:29;;;;;;;19.35;15.63;;;;;;;;;;5121617;28;20035;-64
2022/08/16 09:44:55;;;;;;;19.60;13.65;;;;;;;;;;5137858;27;20063;-64
2022/08/16 09:47:22;;;;;;;18.95;14.13;;;;;;;;;;5133994;27;20571;-64
2022/08/16 09:49:48;;;;;;;19.80;15.20;;;;;;;;;;5148869;27;20027;-64
2022/08/16 09:52:15;;;;;;;20.75;17.10;;;;;;;;;;5149836;27;20381;-65
2022/08/16 09:54:42;;;;;;;24.58;16.27;;;;;;;;;;5136911;27;20063;-64
2022/08/16 09:57:08;;;;;;;23.10;16.08;;;;;;;;;;5144000;27;20050;-64
2022/08/16 09:59:34;;;;;;;18.75;15.10;;;;;;;;;;5136363;27;20027;-65
2022/08/16 10:02:01;;;;;;;19.83;15.65;;;;;;;;;;5122887;27;20077;-64
2022/08/16 10:04:27;;;;;;;21.30;14.98;;;;;;;;;;5150390;27;21418;-65
2022/08/16 10:06:55;;;;;;;21.80;17.00;;;;;;;;;;5142991;27;20524;-65
2022/08/16 10:09:22;;;;;;;21.27;15.85;;;;;;;;;;5148868;27;20114;-65
2022/08/16 10:14:34;;;;;;;33.08;18.63;;;;;;;;;;5144292;27;20345;-66
2022/08/16 10:17:03;;;;;;;16.67;14.80;;;;;;;;;;5150146;27;20395;-65
2022/08/16 10:19:30;;;;;;;25.75;16.33;;;;;;;;;;5153232;27;20082;-65
2022/08/16 10:21:56;;;;;;;25.05;17.75;;;;;;;;;;5145472;27;20043;-64
2022/08/16 10:24:23;;;;;;;29.20;17.20;;;;;;;;;;5152906;27;20043;-65
2022/08/16 10:26:51;;;;;;;26.95;14.95;;;;;;;;;;5151734;27;20487;-64
2022/08/16 10:29:18;;;;;;;13.40;11.98;;;;;;;;;;5151015;27;20115;-65
2022/08/16 10:31:44;;;;;;;26.25;15.05;;;;;;;;;;5143475;27;20100;-65
2022/08/16 10:34:11;;;;;;;18.25;13.90;;;;;;;;;;5131883;27;20122;-64
2022/08/16 10:36:37;;;;;;;18.60;13.32;;;;;;;;;;5133445;27;20042;-64
2022/08/16 10:39:04;;;;;;;16.90;14.75;;;;;;;;;;5133269;27;20268;-65
2022/08/16 10:41:30;;;;;;;22.60;14.68;;;;;;;;;;5152652;27;20038;-64
2022/08/16 10:43:58;;;;;;;16.48;14.32;;;;;;;;;;5152241;27;20480;-65
2022/08/16 10:46:25;;;;;;;17.23;15.43;;;;;;;;;;5146739;27;20058;-65
2022/08/16 10:48:51;;;;;;;22.33;15.48;;;;;;;;;;5140932;27;20403;-66
2022/08/16 10:51:17;;;;;;;17.17;13.90;;;;;;;;;;5134589;27;20114;-66
2022/08/16 10:53:47;;;;;;;22.92;17.15;;;;;;;;;;5142909;27;20034;-64
2022/08/16 10:56:13;;;;;;;20.92;16.08;;;;;;;;;;5124937;27;20042;-64
2022/08/16 10:58:40;;;;;;;20.58;17.75;;;;;;;;;;5114093;27;20043;-64
2022/08/16 11:01:07;;;;;;;19.85;15.57;;;;;;;;;;5147475;27;20039;-64
2022/08/16 11:03:34;;;;;;;19.88;15.65;;;;;;;;;;5150398;27;20046;-65
2022/08/16 11:06:01;;;;;;;20.88;16.98;;;;;;;;;;5146440;27;20043;-64
2022/08/16 11:08:27;;;;;;;19.05;15.15;;;;;;;;;;5147234;27;20053;-64
2022/08/16 11:10:54;;;;;;;17.27;15.50;;;;;;;;;;5149325;27;20030;-63
2022/08/16 11:13:21;;;;;;;20.58;14.40;;;;;;;;;;5141468;27;20794;-66
2022/08/16 11:15:48;;;;;;;18.58;16.27;;;;;;;;;;5139712;27;20035;-66
2022/08/16 11:18:14;;;;;;;21.25;14.57;;;;;;;;;;5139954;27;20053;-63
2022/08/16 11:20:42;;;;;;;17.80;13.85;;;;;;;;;;5131295;27;20298;-63
2022/08/16 11:23:10;;;;;;;17.80;14.27;;;;;;;;;;5137766;27;20472;-63
2022/08/16 11:25:37;;;;;;;15.15;12.18;;;;;;;;;;5149537;27;20023;-63
2022/08/16 11:28:04;;;;;;;17.17;12.98;;;;;;;;;;5142316;27;20042;-65
2022/08/16 11:30:32;;;;;;;14.48;11.77;;;;;;;;;;5122846;27;20057;-65
2022/08/16 11:33:00;;;;;;;15.68;11.02;;;;;;;;;;5122490;27;20054;-65
2022/08/16 11:35:27;;;;;;;15.57;12.60;;;;;;;;;;5127396;27;20647;-66
2022/08/16 11:38:01;;;;;;;19.55;13.90;;;;;;;;;;5129903;27;20129;-65
2022/08/16 11:40:30;;;;;;;13.32;11.40;;;;;;;;;;5143423;27;20482;-65
2022/08/16 11:42:57;;;;;;;15.10;12.73;;;;;;;;;;5135677;27;20035;-65
2022/08/16 11:45:23;;;;;;;17.88;11.65;;;;;;;;;;5116632;27;20055;-64
2022/08/16 11:47:50;;;;;;;12.93;11.50;;;;;;;;;;5145937;27;20334;-65
2022/08/16 11:50:16;;;;;;;17.45;10.85;;;;;;;;;;5137076;27;20492;-65
2022/08/16 11:52:42;;;;;;;15.05;11.07;;;;;;;;;;5115332;27;20046;-65
2022/08/16 11:55:10;;;;;;;12.35;11.15;;;;;;;;;;5119754;27;20130;-65
2022/08/16 11:57:36;;;;;;;15.60;11.88;;;;;;;;;;5127018;27;20488;-65
2022/08/16 12:00:05;;;;;;;24.63;11.38;;;;;;;;;;5132040;27;20395;-65
2022/08/16 12:02:32;;;;;;;16.83;10.18;;;;;;;;;;5148279;27;20041;-64
2022/08/16 12:04:58;;;;;;;12.68;10.23;;;;;;;;;;5126599;27;20504;-64
2022/08/16 12:07:25;;;;;;;19.58;10.73;;;;;;;;;;5141361;27;20492;-65
2022/08/16 12:09:52;;;;;;;15.98;11.90;;;;;;;;;;5147269;27;20042;-65
2022/08/16 12:12:18;;;;;;;17.50;10.52;;;;;;;;;;5127531;27;20399;-65
2022/08/16 12:14:44;;;;;;;12.85;10.60;;;;;;;;;;5127005;27;20054;-65
2022/08/16 12:17:11;;;;;;;16.60;11.80;;;;;;;;;;5144475;27;20036;-66
2022/08/16 12:19:37;;;;;;;13.65;10.85;;;;;;;;;;5126784;27;20050;-65
2022/08/16 12:22:04;;;;;;;11.88;10.00;;;;;;;;;;5146736;27;20043;-65
2022/08/16 12:24:30;;;;;;;20.48;10.35;;;;;;;;;;5149383;27;20484;-65
2022/08/16 12:26:57;;;;;;;15.15;10.48;;;;;;;;;;5146326;27;20031;-65
2022/08/16 12:29:23;;;;;;;10.60;8.65;;;;;;;;;;5129851;27;20118;-65
2022/08/16 12:31:50;;;;;;;14.38;8.85;;;;;;;;;;5136938;27;20123;-65
2022/08/16 12:34:17;;;;;;;15.68;12.10;;;;;;;;;;5111146;27;20045;-64
2022/08/16 12:36:45;;;;;;;16.13;10.40;;;;;;;;;;5145222;27;20034;-65
2022/08/16 12:39:11;;;;;;;11.15;10.00;;;;;;;;;;5142476;27;20084;-65
2022/08/16 12:41:38;;;;;;;13.27;8.15;;;;;;;;;;5146628;27;20476;-65
2022/08/16 12:44:05;;;;;;;15.35;10.93;;;;;;;;;;5136560;27;20131;-65
2022/08/16 12:46:32;;;;;;;15.75;12.80;;;;;;;;;;5130895;27;20057;-64
2022/08/16 12:49:02;;;;;;;16.45;10.57;;;;;;;;;;5139653;27;20326;-64
2022/08/16 12:51:33;;;;;;;12.80;11.48;;;;;;;;;;5139936;27;20043;-65
2022/08/16 12:54:00;;;;;;;17.67;13.50;;;;;;;;;;5139853;27;20039;-65
2022/08/16 12:56:31;;;;;;;13.02;10.95;;;;;;;;;;5116246;27;20068;-65
2022/08/16 12:58:58;;;;;;;14.50;10.73;;;;;;;;;;5143436;27;20042;-65
2022/08/16 13:01:27;;;;;;;15.38;11.63;;;;;;;;;;5120239;27;20074;-65
2022/08/16 13:03:54;;;;;;;14.50;9.60;;;;;;;;;;5140080;27;20492;-65
2022/08/16 13:06:21;;;;;;;11.93;10.32;;;;;;;;;;5147174;27;20061;-65
2022/08/16 13:08:48;;;;;;;12.27;10.80;;;;;;;;;;5148173;27;20091;-65
2022/08/16 13:11:16;;;;;;;11.40;9.75;;;;;;;;;;5146412;27;20070;-65
2022/08/16 13:13:42;;;;;;;17.25;13.20;;;;;;;;;;5143231;27;20031;-65
2022/08/16 13:16:09;;;;;;;13.80;10.70;;;;;;;;;;5131847;27;20057;-65
2022/08/16 13:18:35;;;;;;;9.98;7.57;;;;;;;;;;5139407;27;20038;-67
2022/08/16 13:21:03;;;;;;;11.57;8.80;;;;;;;;;;5122363;28;20058;-65
2022/08/16 13:23:30;;;;;;;12.90;9.10;;;;;;;;;;5122311;27;20579;-67
2022/08/16 13:25:56;;;;;;;10.88;9.50;;;;;;;;;;5149751;27;20038;-65
2022/08/16 13:28:23;;;;;;;11.82;7.85;;;;;;;;;;5144503;27;20557;-65
2022/08/16 13:30:51;;;;;;;10.63;8.82;;;;;;;;;;5144247;27;20027;-65
2022/08/16 13:33:19;;;;;;;10.90;9.05;;;;;;;;;;5116781;27;20082;-65
2022/08/16 13:35:47;;;;;;;9.85;8.77;;;;;;;;;;5144389;27;20118;-65
2022/08/16 13:38:13;;;;;;;9.88;8.20;;;;;;;;;;5139507;27;20507;-65
2022/08/16 13:40:39;;;;;;;12.00;9.95;;;;;;;;;;5125764;27;20401;-65
2022/08/16 13:43:05;;;;;;;14.57;10.27;;;25.00;87.90;;;;;;5141134;27;20039;-65
2022/08/16 13:45:32;;;;;;;10.95;9.85;;;27.00;87.40;;;;;;5144928;27;20088;-65
2022/08/16 13:47:58;;;;;;;11.43;8.10;;;26.80;87.50;;;;;;5122971;27;20043;-65
2022/08/16 13:50:26;;;;;;;8.45;7.40;;;26.90;87.60;;;;;;5145022;27;20064;-65
2022/08/16 13:52:53;;;;;;;10.35;7.00;;;26.90;86.90;;;;;;5123675;27;20039;-65
2022/08/16 13:55:20;;;;;;;11.63;7.93;;;26.80;86.20;;;;;;5152230;27;20031;-66
2022/08/16 13:57:46;;;;;;;13.13;10.10;;;26.80;85.80;;;;;;5145345;27;20090;-65
2022/08/16 14:00:14;;;;;;;12.73;9.38;;;26.80;85.50;;;;;;5147630;27;20039;-66
2022/08/16 14:02:40;;;;;;;12.05;9.35;;;26.80;85.10;;;;;;5141355;27;20094;-65
2022/08/16 14:05:06;;;;;;;11.35;8.50;;;26.70;84.90;;;;;;5138815;27;20046;-65
2022/08/16 14:07:33;;;;;;;9.20;7.78;;;26.70;85.20;;;;;;5146033;27;20151;-65
2022/08/16 14:09:59;;;;;;;9.82;6.60;;;26.80;85.10;;;;;;5152814;27;20082;-65
2022/08/16 14:12:29;;;;;;;9.60;6.47;;;26.80;84.70;;;;;;5145009;27;20039;-66
2022/08/16 14:14:56;;;;;;;9.93;8.13;;;26.80;84.20;;;;;;5141842;27;20041;-65